ケープタウン の空港の天気 - METARとTAF

ケープタウン国際空港 ( FACT / CPT ) - 南アフリカ ケープタウン
飛行場実況気象(Metar)
観測時間12/09 16:00 SAST (12/09 14:00 UTC)
風向・風速南西 7m/s
視程10km以上
天気現象
少しの雲 雲底高度 910m
気温29℃
湿度37%
気圧1009hPa
METARFACT 091400Z 22013KT 9999 FEW030 29/13 Q1009 NOSIG
過去の天気等 Google飛行場航空写真 Wunderground天気予報

過去48時間のMETAR

飛行場予報(TAF)
発表時間: 12/09 12:00 SAST (12/09 10:00 UTC)
予報対象時間: 9日14時 SAST ~ 10日20時 SAST
風向・風速南 9m/s
視程10km以上
なし
9日14時 SAST ~ 9日17時 SAST に 確率 30% で一時的に
風向・風速南南東 13m/s
10日2時 SAST から
風向・風速不定 2m/s
視程10km以上
なし
10日5時 SAST ~ 10日7時 SAST に 確率 30% で一時的に
視程800m
天気現象
全天の8割程度の雲 雲底高度 240m
10日11時 SAST ~ 10日13時 SAST に徐々に
風向・風速南南東 9m/s
TAF FACT 091000Z 0912/1018 17017KT CAVOK TX30/0912Z TN15/1004Z
PROB30 TEMPO 0912/0915 16025KT
FM100000 VRB03KT CAVOK
PROB30 TEMPO 1003/1005 0800 FG BKN008
BECMG 1009/1011 16018KT